createdAt,value
2023-05-17T03:03:01.787Z,99456.63
2023-05-17T03:04:04.652Z,99455.56
2023-05-17T03:05:08.514Z,99456.75
2023-05-17T03:06:12.546Z,99454.97
2023-05-17T03:07:15.532Z,99461.84
2023-05-17T03:08:17.990Z,99457.94
2023-05-17T03:09:22.658Z,99463.03
2023-05-17T03:10:25.619Z,99458.69
2023-05-17T03:11:28.578Z,99461.25
2023-05-17T03:12:32.383Z,99459.41
2023-05-17T03:13:35.176Z,99459.25
2023-05-17T03:14:40.006Z,99460.91
2023-05-17T03:15:42.728Z,99460.00
2023-05-17T03:16:44.629Z,99468.88
2023-05-17T03:17:47.497Z,99471.44
2023-05-17T03:18:52.097Z,99469.31
2023-05-17T03:19:55.867Z,99475.13
2023-05-17T03:20:57.726Z,99468.97
2023-05-17T03:22:01.197Z,99465.81
2023-05-17T03:23:02.996Z,99472.97
2023-05-17T03:24:06.070Z,99476.25
2023-05-17T03:25:08.584Z,99473.56
2023-05-17T03:26:12.426Z,99469.19
2023-05-17T03:27:20.763Z,99475.47
2023-05-17T03:28:26.416Z,99477.53
2023-05-17T03:29:28.265Z,99475.38
2023-05-17T03:30:30.988Z,99472.69
2023-05-17T03:31:33.156Z,99473.84
2023-05-17T03:32:36.050Z,99475.66
2023-05-17T03:33:38.099Z,99478.22
2023-05-17T03:34:42.224Z,99473.09
2023-05-17T03:35:44.020Z,99480.59
2023-05-17T03:36:46.924Z,99482.22
2023-05-17T03:37:48.743Z,99483.13
2023-05-17T03:38:51.553Z,99479.84
2023-05-17T03:39:53.415Z,99484.63
2023-05-17T03:40:56.336Z,99487.91
2023-05-17T03:41:58.231Z,99490.28
2023-05-17T03:43:01.913Z,99484.31
2023-05-17T03:44:04.700Z,99487.75
2023-05-17T03:45:09.277Z,99493.59
2023-05-17T03:46:11.718Z,99488.50
2023-05-17T03:47:14.588Z,99483.41
2023-05-17T03:48:16.453Z,99488.50
2023-05-17T03:49:20.973Z,99487.59
2023-05-17T03:50:25.303Z,99486.69
2023-05-17T03:51:28.065Z,99490.28
2023-05-17T03:52:29.877Z,99488.50
2023-05-17T03:53:32.636Z,99493.59
2023-05-17T03:54:34.562Z,99486.69
2023-05-17T03:55:40.036Z,99491.78
2023-05-17T03:56:46.942Z,99481.28
2023-05-17T03:57:49.578Z,99487.13
2023-05-17T03:58:51.880Z,99487.84
2023-05-17T03:59:54.741Z,99489.31
2023-05-17T04:00:57.155Z,99491.16
2023-05-17T04:01:59.895Z,99484.22
2023-05-17T04:03:01.905Z,99487.53
2023-05-17T04:04:05.941Z,99495.31
2023-05-17T04:05:08.197Z,99491.16
2023-05-17T04:06:12.169Z,99490.41
2023-05-17T04:07:14.018Z,99487.84
2023-05-17T04:08:16.689Z,99486.38
2023-05-17T04:09:18.519Z,99482.16
2023-05-17T04:10:21.380Z,99488.16
2023-05-17T04:11:24.283Z,99494.19
2023-05-17T04:12:27.072Z,99492.34
2023-05-17T04:13:28.858Z,99490.56
2023-05-17T04:14:33.205Z,99485.47
2023-05-17T04:15:35.307Z,99494.78
2023-05-17T04:16:38.986Z,99492.03
2023-05-17T04:17:40.911Z,99496.97
2023-05-17T04:18:45.327Z,99497.88
2023-05-17T04:19:47.574Z,99501.34
2023-05-17T04:20:50.756Z,99510.06
2023-05-17T04:21:54.806Z,99494.00
2023-05-17T04:23:00.070Z,99499.28
2023-05-17T04:24:04.749Z,99501.97
2023-05-17T04:25:08.350Z,99502.31
2023-05-17T04:26:11.260Z,99504.09
2023-05-17T04:27:15.787Z,99497.53
2023-05-17T04:28:18.131Z,99503.69
2023-05-17T04:29:21.277Z,99504.75
2023-05-17T04:30:24.135Z,99508.38
2023-05-17T04:31:26.946Z,99508.38
2023-05-17T04:32:29.424Z,99507.97
2023-05-17T04:33:33.308Z,99504.84
2023-05-17T04:34:35.359Z,99510.84
2023-05-17T04:35:40.141Z,99510.25
2023-05-17T04:36:42.041Z,99506.38
2023-05-17T04:37:46.591Z,99510.88
2023-05-17T04:38:56.036Z,99510.63
2023-05-17T04:40:02.448Z,99512.78
2023-05-17T04:41:07.085Z,99514.88
2023-05-17T04:42:12.462Z,99517.91
2023-05-17T04:43:18.980Z,99515.53
2023-05-17T04:44:22.521Z,99513.28
2023-05-17T04:45:24.982Z,99512.84
2023-05-17T04:46:27.731Z,99515.88
2023-05-17T04:47:29.683Z,99520.38
2023-05-17T04:48:33.839Z,99520.72
2023-05-17T04:49:36.004Z,99516.66
2023-05-17T04:50:38.719Z,99521.75
2023-05-17T04:51:40.472Z,99524.47
2023-05-17T04:52:46.623Z,99526.44
2023-05-17T04:53:49.307Z,99529.31
2023-05-17T04:54:52.979Z,99525.84
2023-05-17T04:55:57.161Z,99527.09
2023-05-17T04:57:00.216Z,99534.31
2023-05-17T04:58:24.185Z,99531.00
2023-05-17T04:59:28.866Z,99533.13
2023-05-17T05:00:31.903Z,99530.88
2023-05-17T06:50:23.069Z,99605.22
2023-05-17T06:51:25.893Z,99609.97
2023-05-17T06:52:27.791Z,99604.84
2023-05-17T06:53:30.530Z,99602.78
2023-05-17T06:54:32.390Z,99597.66
2023-05-17T06:55:35.304Z,99604.47
2023-05-17T06:56:37.069Z,99602.53
2023-05-17T06:57:39.855Z,99606.41
2023-05-17T06:58:41.689Z,99606.16
2023-05-17T06:59:44.441Z,99610.09
2023-05-17T07:00:47.422Z,99605.91
2023-05-17T07:01:50.196Z,99608.84
2023-05-17T07:02:52.335Z,99603.97
2023-05-17T07:03:55.248Z,99600.78
2023-05-17T07:04:57.252Z,99603.88
2023-05-17T07:06:01.243Z,99598.19
2023-05-17T07:07:03.072Z,99607.47
2023-05-17T07:08:06.124Z,99601.06
2023-05-17T07:09:08.167Z,99603.09
2023-05-17T07:10:13.362Z,99605.94
2023-05-17T07:11:16.097Z,99602.31
2023-05-17T07:12:17.890Z,99600.53
2023-05-17T07:13:20.773Z,99610.16
2023-05-17T07:14:22.667Z,99618.69
2023-05-17T07:15:25.529Z,99613.63
2023-05-17T07:16:28.703Z,99614.28
2023-05-17T07:17:30.684Z,99621.63
2023-05-17T07:18:34.292Z,99628.31
2023-05-17T07:19:36.266Z,99622.38
2023-05-17T07:20:39.409Z,99622.50
2023-05-17T07:21:42.506Z,99620.59
2023-05-17T07:22:45.205Z,99621.34
2023-05-17T07:23:46.985Z,99622.66
2023-05-17T07:24:49.690Z,99616.38
2023-05-17T07:25:52.703Z,99619.81
2023-05-17T07:26:55.567Z,99620.19
2023-05-17T07:27:58.269Z,99617.25
2023-05-17T07:29:00.107Z,99626.50
2023-05-17T07:30:03.546Z,99619.31
2023-05-17T07:31:05.355Z,99616.44
2023-05-17T07:32:09.422Z,99621.56
2023-05-17T07:33:12.086Z,99613.59
2023-05-17T07:34:14.221Z,99625.69
2023-05-17T07:35:18.242Z,99620.56
2023-05-17T07:36:21.528Z,99625.72
2023-05-17T07:37:26.096Z,99625.97
2023-05-17T07:38:27.808Z,99623.66
2023-05-17T07:39:30.724Z,99619.03
2023-05-17T07:40:32.487Z,99622.25
2023-05-17T07:41:35.317Z,99622.63
2023-05-17T07:42:37.126Z,99623.38
2023-05-17T07:43:40.450Z,99616.66
2023-05-17T07:44:42.173Z,99616.16
2023-05-17T07:45:44.892Z,99614.88
2023-05-17T07:46:46.687Z,99626.34
2023-05-17T07:47:49.484Z,99620.25
2023-05-17T07:48:51.404Z,99610.41
2023-05-17T07:49:54.294Z,99616.53
2023-05-17T07:50:57.207Z,99603.22
2023-05-17T07:51:59.244Z,99607.03
2023-05-17T07:53:03.359Z,99606.44
2023-05-17T07:54:05.446Z,99605.91
2023-05-17T07:55:08.950Z,99606.25
2023-05-17T07:56:10.734Z,99604.94
2023-05-17T07:57:13.464Z,99615.81
2023-05-17T07:58:15.249Z,99603.00
2023-05-17T07:59:17.978Z,99607.00
2023-05-17T08:00:22.664Z,99606.41
2023-05-17T08:01:25.422Z,99610.78
2023-05-17T08:02:28.142Z,99606.81
2023-05-17T08:03:30.976Z,99605.16
2023-05-17T08:04:32.797Z,99611.06
2023-05-17T08:05:35.721Z,99605.38
2023-05-17T08:06:38.893Z,99608.91
2023-05-17T08:07:42.766Z,99606.44
2023-05-17T08:08:46.825Z,99609.22
2023-05-17T08:09:48.637Z,99608.41
2023-05-17T08:10:51.495Z,99607.66
2023-05-17T08:11:53.298Z,99610.75
2023-05-17T08:12:56.364Z,99609.13
2023-05-17T08:13:58.145Z,99608.31
2023-05-17T08:15:00.909Z,99602.53
2023-05-17T08:16:12.870Z,99603.28
2023-05-17T08:17:16.634Z,99605.19
2023-05-17T08:18:18.515Z,99599.34
2023-05-17T08:19:21.410Z,99604.41
2023-05-17T08:20:24.429Z,99603.94
2023-05-17T08:21:27.176Z,99603.72
2023-05-17T08:22:29.980Z,99605.03
2023-05-17T08:23:32.722Z,99604.97
2023-05-17T08:24:36.866Z,99606.13
2023-05-17T08:25:38.707Z,99610.97
2023-05-17T08:26:41.768Z,99612.41
2023-05-17T08:27:44.079Z,99605.19
2023-05-17T08:28:46.825Z,99609.94
2023-05-17T08:29:49.523Z,99608.09
2023-05-17T08:30:51.349Z,99613.97
2023-05-17T08:31:55.868Z,99611.75
2023-05-17T08:32:57.899Z,99610.66
2023-05-17T08:34:01.080Z,99606.00
2023-05-17T08:35:03.931Z,99609.88
2023-05-17T08:36:08.190Z,99612.44
2023-05-17T08:37:12.990Z,99613.25
2023-05-17T08:38:14.802Z,99610.59
2023-05-17T08:39:17.546Z,99602.97
2023-05-17T08:40:23.121Z,99606.97
2023-05-17T08:41:25.197Z,99605.50
2023-05-17T08:42:29.248Z,99610.78
2023-05-17T08:43:33.047Z,99607.47
2023-05-17T08:44:38.682Z,99613.94
2023-05-17T08:45:40.652Z,99614.47
2023-05-17T08:46:45.091Z,99612.91
2023-05-17T08:47:47.092Z,99610.03
2023-05-17T08:48:52.005Z,99608.81
2023-05-17T08:49:57.669Z,99599.91
2023-05-17T08:51:01.500Z,99601.59
2023-05-17T08:52:09.839Z,99601.34
2023-05-17T08:53:14.756Z,99607.13
2023-05-17T08:54:16.835Z,99594.63
2023-05-17T08:55:20.304Z,99598.94
2023-05-17T08:56:26.697Z,99608.41
2023-05-17T08:57:31.398Z,99606.97
2023-05-17T08:58:51.729Z,99601.78
2023-05-17T09:00:00.373Z,99609.50
2023-05-17T09:01:03.353Z,99602.25
2023-05-17T09:02:07.315Z,99603.16
2023-05-17T09:03:09.520Z,99605.41
2023-05-17T09:04:12.385Z,99607.19
2023-05-17T09:05:17.239Z,99606.63
2023-05-17T09:06:22.734Z,99608.41
2023-05-17T09:07:25.725Z,99605.03
2023-05-17T09:08:30.175Z,99602.56
2023-05-17T09:09:33.979Z,99608.63
2023-05-17T09:10:37.099Z,99598.78
2023-05-17T09:11:41.163Z,99602.59
2023-05-17T09:12:45.095Z,99601.25
2023-05-17T09:13:46.966Z,99601.25
2023-05-17T09:14:50.395Z,99600.97
2023-05-17T09:15:54.098Z,99604.78
2023-05-17T09:16:57.477Z,99599.84
2023-05-17T09:18:00.263Z,99604.09
2023-05-17T09:19:04.072Z,99601.31
2023-05-17T09:20:08.537Z,99601.31
2023-05-17T09:21:14.632Z,99607.13
2023-05-17T09:22:19.764Z,99592.34
2023-05-17T09:23:23.282Z,99594.84
2023-05-17T09:24:30.883Z,99596.09
2023-05-17T09:25:34.252Z,99596.88
2023-05-17T09:26:42.625Z,99598.00
2023-05-17T09:27:45.342Z,99589.00
2023-05-17T09:28:48.056Z,99591.03
2023-05-17T09:29:50.898Z,99598.19
2023-05-17T09:30:52.756Z,99595.75
2023-05-17T09:31:55.803Z,99595.38
2023-05-17T09:32:58.850Z,99592.34
2023-05-17T09:34:02.023Z,99600.66
2023-05-17T09:35:04.121Z,99598.13
2023-05-17T09:36:17.235Z,99600.41
2023-05-17T09:37:21.071Z,99602.88
2023-05-17T09:38:27.146Z,99603.91
2023-05-17T09:39:29.839Z,99604.00
2023-05-17T09:40:32.611Z,99602.88
2023-05-17T09:41:45.382Z,99603.25
2023-05-17T09:42:49.338Z,99609.72
2023-05-17T09:43:51.453Z,99600.84
2023-05-17T09:44:57.599Z,99610.28
2023-05-17T09:45:59.628Z,99602.59
2023-05-17T09:47:02.286Z,99603.06
2023-05-17T09:48:14.787Z,99599.63
2023-05-17T09:49:18.839Z,99599.19
2023-05-17T09:50:23.771Z,99594.63
2023-05-17T09:51:33.789Z,99605.22
2023-05-17T09:52:37.436Z,99602.63
2023-05-17T09:53:40.861Z,99597.16
2023-05-17T09:54:43.571Z,99602.75
2023-05-17T09:55:48.140Z,99600.97
2023-05-17T09:56:57.583Z,99599.41
2023-05-17T09:58:03.599Z,99604.09
2023-05-17T09:59:13.198Z,99605.13
2023-05-17T10:00:19.592Z,99601.81
2023-05-17T10:01:24.143Z,99604.63
2023-05-17T10:02:28.166Z,99590.44
2023-05-17T10:03:33.415Z,99589.00
2023-05-17T10:04:38.112Z,99591.19
2023-05-17T10:05:43.928Z,99596.72
2023-05-17T10:06:50.702Z,99591.03
2023-05-17T10:07:57.530Z,99594.63
2023-05-17T10:09:02.326Z,99594.50
2023-05-17T10:10:13.601Z,99588.78
2023-05-17T10:11:16.039Z,99581.13
2023-05-17T10:12:23.828Z,99585.53
2023-05-17T10:13:33.358Z,99587.97
2023-05-17T10:14:37.106Z,99590.53
2023-05-17T10:15:41.005Z,99591.63
2023-05-17T10:16:43.698Z,99591.63
2023-05-17T10:17:46.839Z,99590.50
2023-05-17T10:18:49.502Z,99593.84
2023-05-17T10:19:53.525Z,99589.34
2023-05-17T10:20:57.128Z,99588.47
2023-05-17T10:22:08.368Z,99588.13
2023-05-17T10:23:22.259Z,99587.41
2023-05-17T10:24:24.684Z,99580.00
2023-05-17T10:25:28.334Z,99585.94
2023-05-17T10:26:30.900Z,99586.25
2023-05-17T10:27:35.220Z,99587.81
2023-05-17T10:28:37.753Z,99586.94
2023-05-17T10:29:41.521Z,99589.78
2023-05-17T10:30:44.098Z,99594.97
2023-05-17T10:31:47.902Z,99590.25
2023-05-17T10:32:50.512Z,99590.31
2023-05-17T10:33:54.171Z,99590.19
2023-05-17T10:35:10.401Z,99584.78
2023-05-17T10:36:18.213Z,99583.78
2023-05-17T10:37:23.983Z,99583.91
2023-05-17T10:38:38.597Z,99584.81
2023-05-17T10:39:46.831Z,99583.81
2023-05-17T10:40:51.669Z,99576.44
2023-05-17T10:42:07.219Z,99568.81
2023-05-17T10:43:19.637Z,99572.28
2023-05-17T10:44:22.085Z,99569.00
2023-05-17T10:45:27.060Z,99573.75
2023-05-17T10:46:31.506Z,99562.91
2023-05-17T10:47:34.926Z,99565.66
2023-05-17T10:48:37.094Z,99576.81
2023-05-17T10:49:41.446Z,99563.41
2023-05-17T10:50:54.423Z,99563.28
2023-05-17T10:52:13.350Z,99560.13
2023-05-17T10:53:16.297Z,99558.31
2023-05-17T10:54:18.674Z,99566.44
2023-05-17T10:55:22.282Z,99566.06
2023-05-17T10:56:24.688Z,99563.47
2023-05-17T10:57:46.825Z,99556.72
2023-05-17T10:59:17.690Z,99556.47
2023-05-17T11:00:22.036Z,99553.84
2023-05-17T11:01:51.847Z,99560.41
2023-05-17T11:03:13.833Z,99558.63
2023-05-17T11:04:25.465Z,99562.03
2023-05-17T11:05:28.909Z,99558.94
2023-05-17T11:06:37.003Z,99558.84
2023-05-17T11:07:40.845Z,99559.97
2023-05-17T11:08:47.508Z,99557.19
2023-05-17T11:09:51.720Z,99557.94
2023-05-17T11:11:10.182Z,99563.38
2023-05-17T11:12:14.070Z,99553.06
2023-05-17T11:13:26.172Z,99558.47
2023-05-17T11:14:44.497Z,99561.47
2023-05-17T11:16:04.157Z,99562.50
2023-05-17T11:17:14.510Z,99569.22
2023-05-17T11:18:29.696Z,99565.84
2023-05-17T11:19:33.629Z,99561.34
2023-05-17T11:20:37.690Z,99563.19
2023-05-17T11:21:46.323Z,99561.25
2023-05-17T11:22:58.508Z,99558.09
2023-05-17T11:24:03.720Z,99562.72
2023-05-17T11:25:09.676Z,99572.88
2023-05-17T11:26:18.032Z,99571.50
2023-05-17T11:27:20.866Z,99555.34
2023-05-17T11:28:23.628Z,99561.13
2023-05-17T11:29:30.626Z,99567.06
2023-05-17T11:30:33.980Z,99563.72
2023-05-17T11:31:38.754Z,99555.78
2023-05-17T11:32:47.367Z,99562.69
2023-05-17T11:33:50.370Z,99554.78
2023-05-17T11:34:52.493Z,99556.50
2023-05-17T11:35:55.972Z,99557.56
2023-05-17T11:36:58.653Z,99555.78
2023-05-17T11:38:15.038Z,99558.69
2023-05-17T11:39:20.930Z,99542.06
2023-05-17T11:40:28.101Z,99541.75
2023-05-17T11:41:31.249Z,99539.84
2023-05-17T11:42:33.266Z,99528.03
2023-05-17T11:43:36.066Z,99530.53
2023-05-17T11:44:41.462Z,99538.69
2023-05-17T11:45:44.627Z,99528.34
2023-05-17T11:46:47.474Z,99532.88
2023-05-17T11:47:49.480Z,99533.53
2023-05-17T11:48:53.921Z,99528.00
2023-05-17T11:50:00.417Z,99529.44
2023-05-17T11:51:03.530Z,99528.19
2023-05-17T11:52:09.043Z,99526.66
2023-05-17T11:53:11.565Z,99522.81
2023-05-17T11:54:15.471Z,99522.34
2023-05-17T11:55:18.611Z,99519.03
2023-05-17T11:56:26.513Z,99517.53
2023-05-17T11:57:35.412Z,99523.53
2023-05-17T11:58:38.610Z,99524.16
2023-05-17T11:59:43.044Z,99523.84
2023-05-17T12:00:46.283Z,99524.81
2023-05-17T12:01:49.855Z,99527.28
2023-05-17T12:02:52.554Z,99528.19
2023-05-17T12:03:59.140Z,99535.34
2023-05-17T12:05:01.086Z,99537.50
2023-05-17T12:06:07.017Z,99541.44
2023-05-17T12:07:10.458Z,99533.66
2023-05-17T12:08:14.219Z,99532.09
2023-05-17T12:09:17.786Z,99527.41
2023-05-17T12:10:19.736Z,99535.88
2023-05-17T12:11:22.998Z,99531.69
2023-05-17T12:12:26.088Z,99530.88
2023-05-17T12:13:30.360Z,99539.94
2023-05-17T12:14:32.960Z,99529.88
2023-05-17T12:15:37.299Z,99532.28
2023-05-17T12:16:44.931Z,99542.88
2023-05-17T12:17:51.536Z,99531.31
2023-05-17T12:18:54.788Z,99539.78
2023-05-17T12:20:06.899Z,99533.09
2023-05-17T12:21:13.506Z,99536.28
2023-05-17T12:22:16.276Z,99537.47
2023-05-17T12:23:26.273Z,99532.91
2023-05-17T12:24:38.643Z,99531.50
2023-05-17T12:25:40.665Z,99539.78
2023-05-17T12:26:46.247Z,99533.06
2023-05-17T12:27:47.976Z,99525.97
2023-05-17T12:28:54.964Z,99523.38
2023-05-17T12:30:15.660Z,99525.94
2023-05-17T12:31:25.480Z,99519.97
2023-05-17T12:32:27.439Z,99514.41
2023-05-17T12:33:33.012Z,99513.19
2023-05-17T12:34:36.465Z,99516.13
2023-05-17T12:35:38.689Z,99514.19
2023-05-17T12:36:42.053Z,99513.66
2023-05-17T12:37:44.204Z,99510.59
2023-05-17T12:38:48.348Z,99515.78
2023-05-17T12:39:51.428Z,99516.84
2023-05-17T12:40:53.342Z,99512.66
2023-05-17T12:41:57.212Z,99504.75
2023-05-17T12:43:03.061Z,99498.69
2023-05-17T12:44:15.514Z,99495.75
2023-05-17T12:45:19.007Z,99510.44
2023-05-17T12:46:24.245Z,99516.34
2023-05-17T12:47:31.640Z,99511.81
2023-05-17T12:48:34.852Z,99518.34
2023-05-17T12:49:40.128Z,99518.44
2023-05-17T12:50:45.783Z,99518.88
2023-05-17T12:51:49.500Z,99516.31
2023-05-17T12:52:51.604Z,99514.50
2023-05-17T13:24:18.168Z,99495.59
2023-05-17T13:25:20.542Z,99499.72
2023-05-17T13:26:23.244Z,99494.16
2023-05-17T13:27:26.119Z,99497.91
2023-05-17T13:28:27.886Z,99485.03
2023-05-17T13:29:38.692Z,99489.84
2023-05-17T13:30:45.884Z,99508.13
2023-05-17T13:31:48.620Z,99501.50
2023-05-17T13:32:51.624Z,99495.63
2023-05-17T13:33:54.677Z,99492.47
2023-05-17T13:35:02.042Z,99494.78
2023-05-17T13:36:04.280Z,99494.72
2023-05-17T13:37:10.346Z,99485.69
2023-05-17T13:38:14.619Z,99484.16
2023-05-17T13:39:17.697Z,99477.59
2023-05-17T13:40:20.494Z,99487.19
2023-05-17T13:41:22.298Z,99495.09
2023-05-17T13:42:25.012Z,99485.41
2023-05-17T13:43:27.741Z,99482.75
2023-05-17T13:44:29.546Z,99479.00
2023-05-17T13:45:32.823Z,99469.31
2023-05-17T13:46:34.707Z,99470.47
2023-05-17T13:47:37.502Z,99473.94
2023-05-17T13:48:42.608Z,99472.72
2023-05-17T13:49:44.860Z,99472.53
2023-05-17T13:50:47.720Z,99462.97
2023-05-17T13:51:50.739Z,99460.53
2023-05-17T13:52:53.423Z,99465.38
2023-05-17T13:53:56.373Z,99468.25
2023-05-17T13:54:59.658Z,99462.22
2023-05-17T13:56:02.371Z,99465.03
2023-05-17T13:57:04.864Z,99473.44
2023-05-17T13:58:07.519Z,99468.59
2023-05-17T13:59:09.300Z,99466.25
2023-05-17T14:00:12.993Z,99471.44
2023-05-17T14:01:15.720Z,99466.59
2023-05-17T14:02:17.518Z,99467.75
2023-05-17T14:03:21.387Z,99464.47
2023-05-17T14:04:23.417Z,99467.16
2023-05-17T14:05:26.745Z,99456.59
2023-05-17T14:06:28.840Z,99463.34
2023-05-17T14:07:31.791Z,99450.84
2023-05-17T14:08:34.265Z,99458.19
2023-05-17T14:09:37.160Z,99449.44
2023-05-17T14:10:40.434Z,99458.13
2023-05-17T14:11:43.350Z,99452.25
2023-05-17T14:12:45.160Z,99459.66
2023-05-17T14:13:47.980Z,99453.44
2023-05-17T14:14:49.774Z,99454.41
2023-05-17T14:15:52.523Z,99467.41
2023-05-17T14:16:54.350Z,99463.06
2023-05-17T14:17:57.275Z,99469.56
2023-05-17T14:19:04.210Z,99468.66
2023-05-17T14:20:08.126Z,99464.22
2023-05-17T14:21:11.026Z,99465.50
2023-05-17T14:22:13.814Z,99456.16
2023-05-17T14:23:16.542Z,99456.00
2023-05-17T14:24:18.500Z,99455.06
2023-05-17T14:25:24.546Z,99454.97
2023-05-17T14:26:27.653Z,99451.22
2023-05-17T14:27:30.390Z,99448.06
2023-05-17T14:28:32.424Z,99448.69
2023-05-17T14:29:35.245Z,99448.38
2023-05-17T14:30:37.077Z,99444.06
2023-05-17T14:31:39.748Z,99440.56
2023-05-17T14:32:42.777Z,99451.69
2023-05-17T14:33:44.631Z,99452.53
2023-05-17T14:34:47.451Z,99448.31
2023-05-17T14:35:50.176Z,99448.69
2023-05-17T14:36:52.964Z,99450.66
2023-05-17T14:37:55.651Z,99449.03
2023-05-17T14:38:57.458Z,99440.09
2023-05-17T14:40:06.364Z,99446.91
2023-05-17T14:41:09.595Z,99457.72
2023-05-17T14:42:13.753Z,99449.59
2023-05-17T14:43:16.670Z,99453.28
2023-05-17T14:44:18.544Z,99451.47
2023-05-17T14:45:21.394Z,99450.06
2023-05-17T14:46:23.664Z,99444.66
2023-05-17T14:47:26.601Z,99451.22
2023-05-17T14:48:31.149Z,99444.94
2023-05-17T14:49:33.039Z,99444.59
2023-05-17T14:50:35.871Z,99448.88
2023-05-17T14:51:37.911Z,99452.00
2023-05-17T14:52:40.688Z,99446.38
2023-05-17T14:53:43.014Z,99448.91
2023-05-17T14:54:45.837Z,99441.09
2023-05-17T14:55:47.727Z,99447.09
2023-05-17T14:56:50.405Z,99442.44
2023-05-17T14:57:54.892Z,99437.78
2023-05-17T14:58:57.762Z,99437.19
2023-05-17T15:00:00.635Z,99438.38
2023-05-17T15:01:05.739Z,99442.16
2023-05-17T15:02:09.306Z,99435.78
2023-05-17T15:03:12.213Z,99434.00
2023-05-17T15:04:14.458Z,99437.75
2023-05-17T15:05:17.829Z,99430.06
2023-05-17T15:06:24.636Z,99435.03
2023-05-17T15:07:26.672Z,99443.47
2023-05-17T15:08:29.477Z,99434.00
2023-05-17T15:09:31.256Z,99433.88
2023-05-17T15:10:35.142Z,99439.38
2023-05-17T15:11:36.893Z,99434.91
2023-05-17T15:12:39.597Z,99440.72
2023-05-17T15:13:42.714Z,99437.50
2023-05-17T15:14:46.537Z,99434.50
2023-05-17T15:15:48.439Z,99432.69
2023-05-17T15:16:52.737Z,99429.00
2023-05-17T15:17:54.765Z,99429.66
2023-05-17T15:18:58.090Z,99419.72
2023-05-17T15:20:00.064Z,99423.94
2023-05-17T15:21:02.998Z,99418.59
2023-05-17T15:22:05.861Z,99417.63
2023-05-17T15:23:07.834Z,99420.63
2023-05-17T15:24:12.578Z,99421.50
2023-05-17T15:25:17.253Z,99433.16
2023-05-17T15:26:19.182Z,99426.72
2023-05-17T15:27:21.938Z,99425.84
2023-05-17T15:28:23.808Z,99426.06
2023-05-17T15:29:28.760Z,99426.78
2023-05-17T15:30:30.739Z,99423.13
2023-05-17T15:31:33.762Z,99415.97
2023-05-17T15:32:35.618Z,99420.88
2023-05-17T15:33:39.449Z,99424.28
2023-05-17T15:34:42.588Z,99425.59
2023-05-17T15:35:44.700Z,99426.09
2023-05-17T15:36:48.038Z,99422.16
2023-05-17T15:37:51.773Z,99426.22
2023-05-17T15:38:54.769Z,99416.59
2023-05-17T15:39:57.471Z,99416.16
2023-05-17T15:41:03.873Z,99421.00
2023-05-17T15:42:06.885Z,99407.19
2023-05-17T15:43:08.589Z,99404.28
2023-05-17T15:44:11.303Z,99404.06
2023-05-17T15:45:14.433Z,99409.31
2023-05-17T15:46:18.059Z,99415.09
2023-05-17T15:47:21.885Z,99412.25
2023-05-17T15:48:29.073Z,99400.66
2023-05-17T15:49:32.310Z,99407.31
2023-05-17T15:50:34.274Z,99407.66
2023-05-17T15:51:37.242Z,99404.47
2023-05-17T15:52:39.588Z,99391.56
2023-05-17T15:53:42.485Z,99389.00
2023-05-17T15:54:47.091Z,99408.97
2023-05-17T15:55:51.102Z,99400.63
2023-05-17T15:56:54.109Z,99399.31
2023-05-17T15:57:56.014Z,99399.31
2023-05-17T15:59:01.197Z,99395.97
2023-05-17T16:00:05.447Z,99397.75
2023-05-17T16:01:12.407Z,99396.69
2023-05-17T16:02:15.599Z,99400.13
2023-05-17T16:03:17.643Z,99399.84
2023-05-17T16:04:21.483Z,99411.22
2023-05-17T16:05:23.281Z,99398.19
2023-05-17T16:06:26.812Z,99406.50
2023-05-17T16:07:28.946Z,99396.69
2023-05-17T16:08:31.936Z,99409.41
2023-05-17T16:09:34.928Z,99402.78
2023-05-17T16:10:37.177Z,99407.47
2023-05-17T16:11:40.052Z,99409.56
2023-05-17T16:12:42.160Z,99408.50
2023-05-17T16:13:45.033Z,99409.28
2023-05-17T16:14:47.040Z,99405.84
2023-05-17T16:15:50.081Z,99414.41
2023-05-17T16:16:53.150Z,99415.34
2023-05-17T16:17:56.171Z,99411.44
2023-05-17T16:18:59.245Z,99408.66
2023-05-17T16:20:01.669Z,99411.59
2023-05-17T16:21:06.393Z,99410.75
2023-05-17T16:22:09.738Z,99413.38
2023-05-17T16:23:12.786Z,99421.16
2023-05-17T16:24:15.811Z,99413.34
2023-05-17T16:25:18.414Z,99411.59
2023-05-17T16:26:22.313Z,99412.41
2023-05-17T16:27:24.216Z,99403.38
2023-05-17T16:28:27.435Z,99401.03
2023-05-17T16:29:29.162Z,99409.00
2023-05-17T16:30:32.856Z,99409.94
2023-05-17T16:31:35.226Z,99407.25
2023-05-17T16:32:39.350Z,99402.78
2023-05-17T16:33:42.521Z,99403.00
2023-05-17T16:34:45.549Z,99402.81
2023-05-17T16:35:48.659Z,99409.59
2023-05-17T16:36:51.485Z,99414.28
2023-05-17T16:37:53.281Z,99418.44
2023-05-17T16:38:56.027Z,99413.00
2023-05-17T16:39:58.001Z,99414.31
2023-05-17T16:41:03.228Z,99408.13
2023-05-17T16:42:05.647Z,99420.00
2023-05-17T16:43:08.462Z,99425.44
2023-05-17T16:44:10.353Z,99405.09
2023-05-17T16:45:13.124Z,99413.47
2023-05-17T16:46:14.941Z,99415.50
2023-05-17T16:47:17.813Z,99412.75
2023-05-17T16:48:21.178Z,99409.69
2023-05-17T16:49:23.889Z,99416.06
2023-05-17T16:50:25.776Z,99411.75
2023-05-17T16:51:28.558Z,99417.09
2023-05-17T16:52:30.355Z,99415.03
2023-05-17T16:53:33.060Z,99408.19
2023-05-17T16:54:35.629Z,99417.13
2023-05-17T16:55:38.469Z,99417.84
2023-05-17T16:56:41.331Z,99418.22
2023-05-17T16:57:43.838Z,99412.34
2023-05-17T16:58:46.663Z,99410.47
2023-05-17T16:59:48.513Z,99419.03
2023-05-17T17:00:51.844Z,99414.56
2023-05-17T17:01:53.811Z,99409.84
2023-05-17T17:02:56.693Z,99415.69
2023-05-17T17:04:01.692Z,99419.41
2023-05-17T17:05:04.742Z,99412.69
2023-05-17T17:06:07.666Z,99416.38
2023-05-17T17:07:12.601Z,99411.03
2023-05-17T17:08:16.859Z,99413.50
2023-05-17T17:09:20.217Z,99420.38
2023-05-17T17:10:25.244Z,99409.88
2023-05-17T17:11:31.802Z,99415.00
2023-05-17T17:12:36.195Z,99415.09
2023-05-17T17:13:41.315Z,99417.75
2023-05-17T17:14:44.967Z,99412.84
2023-05-17T17:15:51.628Z,99411.66
2023-05-17T17:16:55.311Z,99412.19
2023-05-17T17:18:00.246Z,99419.41
2023-05-17T17:19:05.768Z,99421.16
2023-05-17T17:20:11.737Z,99413.50
2023-05-17T17:21:15.466Z,99417.16
2023-05-17T17:22:19.580Z,99410.38
2023-05-17T17:23:22.331Z,99412.63
2023-05-17T17:24:26.980Z,99421.03
2023-05-17T17:25:31.397Z,99421.66
2023-05-17T17:26:35.869Z,99420.59
2023-05-17T17:27:40.667Z,99425.81
2023-05-17T17:28:43.452Z,99419.50
2023-05-17T17:29:47.252Z,99423.16
2023-05-17T17:30:50.781Z,99424.19
2023-05-17T17:31:57.611Z,99429.75
2023-05-17T17:33:01.981Z,99423.75
2023-05-17T17:34:08.541Z,99429.56
2023-05-17T17:35:15.903Z,99436.00
2023-05-17T17:36:22.069Z,99438.91
2023-05-17T17:37:28.285Z,99431.75
2023-05-17T17:38:34.039Z,99437.72
2023-05-17T17:39:38.944Z,99434.28
2023-05-17T17:40:44.417Z,99435.56
2023-05-17T17:41:48.586Z,99438.06
2023-05-17T17:42:53.536Z,99442.03
2023-05-17T17:43:57.317Z,99435.44
2023-05-17T17:45:02.220Z,99436.16
2023-05-17T17:46:05.453Z,99437.19
2023-05-17T17:47:10.406Z,99443.59
2023-05-17T17:48:15.567Z,99439.22
2023-05-17T17:49:21.190Z,99445.84
2023-05-17T17:50:25.910Z,99447.56
2023-05-17T17:51:29.142Z,99441.72
2023-05-17T17:52:37.726Z,99445.16
2023-05-17T17:53:42.548Z,99441.00
2023-05-17T17:54:47.208Z,99448.69